Time;durP1;ratioP1;P1;durP2;ratioP2;P2;SDS_P1;SDS_P2;PMS_P1;PMS_P2;Temp;Humidity;BMP_temperature;BMP_pressure;BME280_temperature;BME280_humidity;BME280_pressure;Samples;Min_cycle;Max_cycle;Signal;HPM_P1;HPM_P2
2020/12/09 00:04:48;;;;;;;79.53;43.65;;;;;;;4.43;75.10;100908.44;10127208;28;20046;-71
2020/12/09 00:09:45;;;;;;;84.22;42.95;;;;;;;4.36;75.99;100902.47;10124209;28;20060;-70
2020/12/09 00:14:41;;;;;;;82.65;40.03;;;;;;;4.29;75.79;100912.72;10132039;28;20638;-71
2020/12/09 00:24:50;;;;;;;77.35;39.85;;;;;;;4.02;76.25;100920.31;10490519;22;20511;-77
2020/12/09 00:29:46;;;;;;;75.47;39.55;;;;;;;4.11;76.03;100911.41;10102572;28;20411;-77
2020/12/09 00:34:42;;;;;;;83.72;43.30;;;;;;;4.08;76.11;100913.81;10098623;28;20046;-77
2020/12/09 00:39:38;;;;;;;73.70;38.42;;;;;;;3.99;76.67;100908.97;10101560;28;20142;-77
2020/12/09 00:44:35;;;;;;;84.85;40.22;;;;;;;4.26;75.68;100907.88;10101940;28;20070;-78
2020/12/09 00:49:31;;;;;;;73.70;36.53;;;;;;;4.14;76.20;100910.03;10095227;28;20049;-79
2020/12/09 00:54:27;;;;;;;82.38;39.30;;;;;;;4.07;76.07;100909.50;10101760;28;20494;-77
2020/12/09 00:59:23;;;;;;;75.25;37.95;;;;;;;4.21;76.51;100905.16;10094854;28;20499;-75
2020/12/09 01:04:19;;;;;;;76.00;37.72;;;;;;;4.08;76.31;100916.53;10098347;28;20046;-75
2020/12/09 01:09:15;;;;;;;83.65;41.67;;;;;;;4.08;76.40;100911.13;10089685;28;20106;-75
2020/12/09 01:14:12;;;;;;;75.43;38.70;;;;;;;4.14;76.80;100920.88;10092266;28;20046;-75
2020/12/09 01:19:08;;;;;;;76.65;37.92;;;;;;;4.16;76.35;100918.72;10082307;28;20432;-75
2020/12/09 01:24:04;;;;;;;83.25;40.97;;;;;;;3.94;76.63;100916.25;10081102;28;20495;-75
2020/12/09 01:29:00;;;;;;;79.13;38.45;;;;;;;4.16;75.67;100918.72;10095212;28;20051;-75
2020/12/09 01:33:56;;;;;;;83.13;39.53;;;;;;;4.05;76.79;100911.66;10090774;28;20423;-75
2020/12/09 01:38:52;;;;;;;71.20;36.75;;;;;;;3.98;76.77;100915.44;10088551;28;20047;-75
2020/12/09 01:43:50;;;;;;;74.35;38.40;;;;;;;3.94;76.52;100914.34;10091373;28;20050;-75
2020/12/09 01:48:49;;;;;;;74.50;37.47;;;;;;;3.85;77.36;100924.06;10091178;28;20082;-77
2020/12/09 01:53:45;;;;;;;73.28;35.40;;;;;;;3.88;77.22;100939.78;10095891;28;20415;-79
2020/12/09 01:58:41;;;;;;;74.10;37.00;;;;;;;4.05;76.58;100938.72;10088494;28;20483;-78
2020/12/09 02:03:37;;;;;;;72.03;35.97;;;;;;;4.03;76.76;100935.47;10085256;28;20051;-77
2020/12/09 02:08:34;;;;;;;83.60;39.50;;;;;;;3.75;77.48;100935.69;10080864;28;20054;-78
2020/12/09 02:13:31;;;;;;;78.97;36.92;;;;;;;3.88;76.88;100950.59;10093244;28;20110;-79
2020/12/09 02:18:28;;;;;;;79.28;38.88;;;;;;;3.88;76.89;100944.38;10083959;28;20496;-77
2020/12/09 02:23:24;;;;;;;85.95;39.53;;;;;;;3.85;76.91;100937.59;10096647;28;20057;-80
2020/12/09 02:28:20;;;;;;;74.80;39.60;;;;;;;3.91;77.72;100943.84;10095196;28;20051;-77
2020/12/09 02:33:16;;;;;;;83.07;39.42;;;;;;;3.70;77.49;100948.38;10087733;28;20051;-77
2020/12/09 02:38:12;;;;;;;82.18;38.60;;;;;;;3.87;77.71;100929.22;10094426;28;20050;-78
2020/12/09 02:43:09;;;;;;;87.00;40.88;;;;;;;3.80;77.86;100911.34;10090740;28;20050;-78
2020/12/09 02:48:05;;;;;;;76.28;37.10;;;;;;;3.86;77.72;100909.47;10081884;28;20491;-77
2020/12/09 02:53:01;;;;;;;81.47;40.28;;;;;;;3.73;78.79;100904.56;10090700;28;20063;-78
2020/12/09 02:57:57;;;;;;;83.43;38.65;;;;;;;3.65;79.04;100907.81;10091436;28;20480;-79
2020/12/09 03:02:54;;;;;;;80.30;37.72;;;;;;;3.71;78.11;100912.13;10100856;28;20059;-78
2020/12/09 03:07:50;;;;;;;81.47;39.25;;;;;;;3.58;78.79;100925.09;10098745;28;20484;-77
2020/12/09 03:12:47;;;;;;;73.20;34.13;;;;;;;3.72;78.20;100927.28;10105041;28;20050;-77
2020/12/09 03:17:44;;;;;;;77.20;35.17;;;;;;;3.91;77.54;100923.00;10096506;28;20139;-77
2020/12/09 03:22:40;;;;;;;77.18;36.20;;;;;;;3.88;77.13;100906.50;10096884;28;20054;-78
2020/12/09 03:27:36;;;;;;;75.07;33.80;;;;;;;3.80;77.45;100915.94;10094644;28;20058;-77
2020/12/09 03:32:32;;;;;;;80.05;36.35;;;;;;;3.86;78.00;100923.00;10105027;28;20162;-76
2020/12/09 03:37:29;;;;;;;78.93;37.97;;;;;;;3.95;77.09;100934.91;10104619;28;20062;-76
2020/12/09 03:42:25;;;;;;;79.05;37.00;;;;;;;3.94;77.57;100914.34;10104585;28;20063;-76
2020/12/09 03:47:21;;;;;;;76.45;36.17;;;;;;;3.93;77.04;100915.44;10100183;28;20061;-73
2020/12/09 03:52:17;;;;;;;79.25;36.83;;;;;;;3.66;78.79;100926.44;10105151;28;20061;-74
2020/12/09 03:57:14;;;;;;;79.30;34.58;;;;;;;3.80;77.66;100943.00;10098872;28;20062;-76
2020/12/09 04:02:10;;;;;;;80.40;34.53;;;;;;;3.78;77.98;100945.97;10104415;28;20418;-76
2020/12/09 04:07:06;;;;;;;70.50;35.97;;;;;;;4.00;77.56;100955.75;10096002;28;20051;-76
2020/12/09 04:12:02;;;;;;;80.28;33.95;;;;;;;3.66;77.89;100947.28;10097232;28;20054;-76
2020/12/09 04:16:58;;;;;;;73.70;37.03;;;;;;;3.90;77.38;100948.44;10089159;28;20141;-76
2020/12/09 04:21:55;;;;;;;75.13;32.92;;;;;;;3.80;77.05;100953.81;10110504;28;20054;-75
2020/12/09 04:26:51;;;;;;;78.22;37.53;;;;;;;4.03;76.75;100951.69;10098074;28;20059;-76
2020/12/09 04:31:48;;;;;;;78.65;36.83;;;;;;;3.99;77.26;100946.84;10102432;28;20070;-77
2020/12/09 04:36:47;;;;;;;80.00;35.15;;;;;;;4.07;77.33;100948.19;10099646;28;20443;-77
2020/12/09 04:41:45;;;;;;;79.75;34.88;;;;;;;4.05;76.84;100954.94;10096201;28;20054;-76
2020/12/09 04:46:50;;;;;;;78.38;35.97;;;;;;;3.99;77.35;100943.28;10097988;28;20731;-74
2020/12/09 04:52:46;;;;;;;82.35;37.83;;;;;;;3.90;76.83;100943.03;10102396;28;20050;-76
2020/12/09 04:58:04;;;;;;;74.77;36.40;;;;;;;4.07;76.77;100941.97;9959419;29;20108;-78
2020/12/09 05:03:14;;;;;;;82.97;37.08;;;;;;;4.01;76.95;100938.44;10096270;28;20055;-77
2020/12/09 05:08:21;;;;;;;79.40;37.65;;;;;;;4.06;76.74;100934.91;10098358;28;20054;-75
2020/12/09 05:13:25;;;;;;;80.82;36.50;;;;;;;3.95;77.27;100934.91;10091635;28;20050;-78
2020/12/09 05:18:42;;;;;;;76.47;36.85;;;;;;;3.90;77.78;100948.44;10088374;28;20054;-79
2020/12/09 05:23:44;;;;;;;72.82;36.35;;;;;;;4.07;76.72;100959.00;10093938;28;20061;-80
2020/12/09 05:28:41;;;;;;;75.78;35.95;;;;;;;4.06;76.42;100956.56;10087546;28;20392;-80
2020/12/09 05:33:46;;;;;;;75.97;37.13;;;;;;;4.09;76.35;100962.25;10095879;28;20047;-79
2020/12/09 05:39:05;;;;;;;73.20;33.72;;;;;;;3.98;76.42;100972.25;10076900;28;20079;-79
2020/12/09 05:44:04;;;;;;;72.90;36.33;;;;;;;4.05;76.82;100976.59;10084628;28;20047;-79
2020/12/09 05:49:22;;;;;;;78.03;34.72;;;;;;;4.07;76.60;100985.25;10081354;28;20043;-78
2020/12/09 05:54:25;;;;;;;74.82;35.35;;;;;;;3.96;77.41;100985.22;10082967;28;20101;-79
2020/12/09 05:59:35;;;;;;;78.63;35.27;;;;;;;4.10;76.70;100980.13;10088804;28;20057;-79
2020/12/09 06:05:03;;;;;;;74.35;36.63;;;;;;;4.16;76.56;100978.25;10082726;28;20055;-77
2020/12/09 06:10:17;;;;;;;76.40;36.33;;;;;;;4.08;77.15;100970.66;10089482;28;20059;-77
2020/12/09 06:15:15;;;;;;;61.00;30.25;;;;;;;4.15;76.67;100954.97;10082294;28;20050;-78
2020/12/09 06:20:11;;;;;;;75.75;37.60;;;;;;;4.08;77.62;100957.13;10082584;28;20388;-78
2020/12/09 06:25:08;;;;;;;75.30;34.65;;;;;;;4.19;76.59;100958.75;10079918;28;20051;-77
2020/12/09 06:30:10;;;;;;;73.93;36.15;;;;;;;4.12;76.53;100969.03;10096014;28;20492;-78
2020/12/09 06:35:07;;;;;;;77.50;37.47;;;;;;;4.13;76.34;100967.94;10095234;28;20506;-78
2020/12/09 06:40:11;;;;;;;78.35;39.65;;;;;;;4.11;76.54;100953.91;10102445;28;20399;-78
2020/12/09 06:45:08;;;;;;;82.43;38.05;;;;;;;3.97;76.64;100976.03;10105566;28;20142;-79
2020/12/09 06:50:04;;;;;;;92.35;38.45;;;;;;;3.74;78.14;100976.53;10093056;28;20050;-78
2020/12/09 06:55:07;;;;;;;78.57;38.28;;;;;;;3.90;77.07;100980.91;10102318;28;20130;-78
2020/12/09 07:00:24;;;;;;;83.03;39.65;;;;;;;3.97;77.31;100992.28;10113773;28;20097;-78
2020/12/09 07:05:27;;;;;;;85.93;38.45;;;;;;;3.93;77.74;100991.19;10102482;28;20058;-78
2020/12/09 07:10:25;;;;;;;89.45;37.75;;;;;;;3.99;78.21;100995.53;10100355;28;20086;-77
2020/12/09 07:15:22;;;;;;;77.78;35.72;;;;;;;4.09;78.14;100975.00;10087828;28;20102;-79
2020/12/09 07:20:18;;;;;;;82.57;38.78;;;;;;;3.96;78.99;100974.41;10087930;28;20097;-77
2020/12/09 07:25:18;;;;;;;74.85;37.38;;;;;;;4.16;78.13;100989.06;10098492;28;20082;-77
2020/12/09 07:30:17;;;;;;;80.53;37.58;;;;;;;4.09;77.95;100993.94;10097807;28;20051;-78
2020/12/09 07:35:33;;;;;;;84.72;39.65;;;;;;;4.18;78.60;100986.91;10084111;28;20046;-79
2020/12/09 07:40:33;;;;;;;77.72;38.70;;;;;;;4.08;78.06;100986.88;10096359;28;20051;-77
2020/12/09 07:45:30;;;;;;;76.70;37.30;;;;;;;4.16;77.78;100978.25;10096201;28;20059;-77
2020/12/09 07:50:26;;;;;;;75.00;38.17;;;;;;;4.25;78.49;100975.81;10101147;28;20063;-78
2020/12/09 07:55:28;;;;;;;75.93;36.60;;;;;;;4.27;78.27;100982.59;10102229;28;20093;-80
2020/12/09 08:00:45;;;;;;;81.55;37.20;;;;;;;4.24;77.81;100980.41;10115428;28;20054;-78
2020/12/09 08:05:41;;;;;;;77.40;36.85;;;;;;;4.34;77.38;100976.91;10098120;28;20153;-78
2020/12/09 08:10:39;;;;;;;76.55;36.17;;;;;;;4.36;77.42;100977.44;10099957;28;20050;-78
2020/12/09 08:15:44;;;;;;;86.25;38.83;;;;;;;4.23;78.31;100984.22;10100668;28;20086;-78
2020/12/09 08:20:45;;;;;;;79.05;37.88;;;;;;;4.32;78.15;100998.84;10097971;28;20507;-79
2020/12/09 08:25:51;;;;;;;72.53;34.28;;;;;;;4.38;77.76;100988.81;10094052;28;20106;-78
2020/12/09 08:30:49;;;;;;;77.38;38.63;;;;;;;4.36;77.54;101004.50;10095695;28;20053;-77
2020/12/09 08:35:48;;;;;;;77.30;35.58;;;;;;;4.41;77.92;101007.25;10091236;28;20065;-81
2020/12/09 08:40:48;;;;;;;81.28;36.03;;;;;;;4.45;77.41;100991.25;10098809;28;20055;-77
2020/12/09 08:45:46;;;;;;;74.13;34.05;;;;;;;4.39;77.73;100983.13;10089024;28;20058;-77
2020/12/09 08:50:42;;;;;;;71.07;35.00;;;;;;;4.48;77.44;100993.41;10099469;28;20057;-76
2020/12/09 08:55:38;;;;;;;67.72;34.35;;;;;;;4.31;78.51;100997.19;10092392;28;20055;-77
2020/12/09 09:00:37;;;;;;;70.85;32.97;;;;;;;4.44;77.39;100995.88;10099435;28;20137;-77
2020/12/09 09:05:33;;;;;;;70.80;35.33;;;;;;;4.51;77.26;100992.91;10092726;28;20062;-78
2020/12/09 09:10:29;;;;;;;69.63;34.30;;;;;;;4.21;78.23;100997.19;10096926;28;20054;-78
2020/12/09 09:15:32;;;;;;;66.93;32.50;;;;;;;4.31;77.22;100997.19;10097640;28;20479;-77
2020/12/09 09:20:29;;;;;;;71.45;33.83;;;;;;;4.41;77.91;101005.34;10089227;28;20077;-77
2020/12/09 09:25:32;;;;;;;69.47;30.88;;;;;;;4.40;77.32;101009.13;10089112;28;20137;-78
2020/12/09 09:30:29;;;;;;;68.28;32.90;;;;;;;4.43;76.55;101011.31;10091161;28;20051;-81
2020/12/09 09:35:25;;;;;;;68.50;33.30;;;;;;;4.36;77.00;100997.22;10083992;28;20054;-77
2020/12/09 09:40:21;;;;;;;68.93;32.78;;;;;;;4.39;77.47;100998.59;10091025;28;20075;-79
2020/12/09 09:45:29;;;;;;;65.88;32.53;;;;;;;4.53;77.23;101004.28;10087665;28;20504;-78
2020/12/09 09:50:25;;;;;;;62.60;28.48;;;;;;;4.52;76.87;101002.63;10085772;28;20052;-78
2020/12/09 09:55:21;;;;;;;67.78;33.30;;;;;;;4.39;77.16;101004.81;10096147;28;20057;-78
2020/12/09 10:00:17;;;;;;;70.32;33.55;;;;;;;4.43;77.46;101000.47;10106015;28;20055;-78
2020/12/09 10:05:14;;;;;;;63.25;30.20;;;;;;;4.42;76.66;101003.44;10098507;28;20086;-79
2020/12/09 10:10:10;;;;;;;62.60;32.00;;;;;;;4.60;76.84;101010.25;10304329;23;20137;-73
2020/12/09 10:15:06;;;;;;;62.75;31.45;;;;;;;4.63;77.22;101004.28;10118322;28;20058;-74
2020/12/09 10:20:02;;;;;;;62.88;31.20;;;;;;;4.56;76.50;101006.44;10128759;28;20050;-72
2020/12/09 10:24:58;;;;;;;61.20;31.08;;;;;;;4.50;76.30;101015.63;10123607;28;20058;-72
2020/12/09 10:29:54;;;;;;;59.00;30.92;;;;;;;4.55;76.16;101029.16;10132621;28;20050;-73
2020/12/09 10:34:51;;;;;;;66.88;33.33;;;;;;;4.38;76.99;101014.00;10133077;28;20042;-73
2020/12/09 10:39:52;;;;;;;68.38;33.85;;;;;;;4.36;76.79;101005.34;10129427;28;20043;-72
2020/12/09 10:44:48;;;;;;;67.00;30.75;;;;;;;4.49;77.19;101004.00;10117631;28;20518;-72
2020/12/09 10:49:44;;;;;;;69.82;35.10;;;;;;;4.47;77.31;101002.63;10133751;28;20046;-72
2020/12/09 10:54:42;;;;;;;78.18;36.60;;;;;;;4.31;77.29;101013.44;10111897;28;20426;-72
2020/12/09 10:59:42;;;;;;;79.95;34.88;;;;;;;4.38;77.20;101019.41;10145308;28;20054;-73
2020/12/09 11:04:38;;;;;;;66.05;31.42;;;;;;;4.58;77.04;101001.56;10142051;28;20054;-72
2020/12/09 11:09:34;;;;;;;66.97;32.80;;;;;;;4.64;76.89;101005.88;10130643;28;20042;-72
2020/12/09 11:14:34;;;;;;;71.90;34.42;;;;;;;4.59;76.67;101008.59;10130994;28;20069;-71
2020/12/09 11:19:31;;;;;;;73.05;35.60;;;;;;;4.68;76.67;101001.56;10135151;28;20109;-73
2020/12/09 11:24:28;;;;;;;70.53;33.58;;;;;;;4.71;76.39;100998.31;10114681;28;20077;-74
2020/12/09 11:29:24;;;;;;;67.40;33.03;;;;;;;4.75;76.78;100991.25;10125426;28;20042;-73
2020/12/09 11:34:22;;;;;;;72.13;33.45;;;;;;;4.79;76.51;100991.53;10128148;28;20442;-73
2020/12/09 11:39:18;;;;;;;72.75;34.85;;;;;;;4.75;77.04;100985.84;10120425;28;20070;-72
2020/12/09 11:44:14;;;;;;;74.75;35.05;;;;;;;4.69;76.49;100989.66;10132586;28;20070;-72
2020/12/09 11:49:10;;;;;;;76.50;35.92;;;;;;;4.71;76.38;100983.94;10137388;28;20046;-72
2020/12/09 11:54:06;;;;;;;72.18;35.40;;;;;;;4.76;75.96;100987.47;10142422;28;20169;-73
2020/12/09 11:59:02;;;;;;;71.07;34.70;;;;;;;4.77;75.57;100983.66;10126094;28;20043;-72
2020/12/09 12:03:58;;;;;;;71.90;34.83;;;;;;;4.65;75.87;100975.03;10138929;28;20056;-73
2020/12/09 12:08:55;;;;;;;64.75;31.88;;;;;;;4.69;75.75;100977.97;10115296;28;20062;-72
2020/12/09 12:13:52;;;;;;;73.97;36.92;;;;;;;4.73;76.66;100966.34;10119401;28;20055;-73
2020/12/09 12:18:48;;;;;;;70.43;35.65;;;;;;;4.83;75.63;100970.94;10101639;28;20050;-72
2020/12/09 12:23:46;;;;;;;67.45;32.58;;;;;;;4.84;75.11;100967.94;10118301;28;20058;-72
2020/12/09 12:28:46;;;;;;;64.93;33.30;;;;;;;4.88;74.88;100959.28;10112967;28;20042;-73
2020/12/09 12:33:42;;;;;;;70.93;33.83;;;;;;;4.91;75.37;100950.59;10115019;28;20573;-71
2020/12/09 12:38:39;;;;;;;67.72;34.10;;;;;;;4.86;75.48;100951.44;10101984;28;20073;-72
2020/12/09 12:43:36;;;;;;;74.40;36.50;;;;;;;4.90;75.66;100955.22;10133441;28;20050;-72
2020/12/09 12:48:32;;;;;;;70.55;34.28;;;;;;;4.85;75.00;100957.94;10119454;28;20581;-72
2020/12/09 12:53:28;;;;;;;69.38;33.13;;;;;;;4.76;76.23;100946.84;10126589;28;20061;-72
2020/12/09 12:58:25;;;;;;;80.03;38.83;;;;;;;4.84;75.79;100946.28;10130400;28;20046;-72
2020/12/09 13:03:21;;;;;;;71.78;34.72;;;;;;;4.80;75.82;100947.94;10137922;28;20510;-73
2020/12/09 13:08:17;;;;;;;73.80;35.15;;;;;;;4.69;75.89;100951.72;10125192;28;20408;-73
2020/12/09 13:13:13;;;;;;;80.72;39.72;;;;;;;4.82;76.13;100953.06;10125146;28;20050;-72
2020/12/09 13:18:09;;;;;;;79.30;37.08;;;;;;;4.72;75.69;100948.47;10122547;28;20057;-73
2020/12/09 13:23:05;;;;;;;77.82;38.05;;;;;;;4.74;76.46;100951.72;10117313;28;20050;-73
2020/12/09 13:28:02;;;;;;;74.90;36.67;;;;;;;4.78;75.81;100952.81;10119674;28;20046;-72
2020/12/09 13:32:58;;;;;;;73.40;36.65;;;;;;;4.83;75.76;100944.66;10112578;28;20523;-72
2020/12/09 13:37:55;;;;;;;80.22;40.15;;;;;;;4.90;75.37;100952.50;10110044;28;20057;-72
2020/12/09 13:42:51;;;;;;;81.50;40.30;;;;;;;4.90;75.31;100959.81;10113944;28;20102;-73
2020/12/09 13:47:47;;;;;;;83.32;40.45;;;;;;;4.84;75.98;100973.38;10132579;28;20057;-74
2020/12/09 13:52:43;;;;;;;82.15;41.47;;;;;;;4.87;75.84;100966.59;10130386;28;20050;-72
2020/12/09 13:57:39;;;;;;;80.57;41.08;;;;;;;4.83;76.19;100958.22;10119646;28;20544;-72
2020/12/09 14:02:37;;;;;;;72.13;40.22;;;;;;;4.89;75.81;100963.63;10119811;28;20082;-72
2020/12/09 14:07:33;;;;;;;77.15;37.72;;;;;;;4.82;75.75;100958.47;10101816;28;20102;-72
2020/12/09 14:12:29;;;;;;;80.65;41.20;;;;;;;4.84;76.00;100957.09;10128210;28;20463;-72
2020/12/09 14:17:25;;;;;;;79.57;39.33;;;;;;;4.88;75.78;100962.00;10120838;28;20061;-73
2020/12/09 14:22:23;;;;;;;79.75;40.00;;;;;;;4.90;76.15;100962.50;10112238;28;20053;-73
2020/12/09 14:27:19;;;;;;;77.97;40.75;;;;;;;4.86;76.21;100970.41;10127753;28;20079;-71
2020/12/09 14:32:15;;;;;;;71.00;36.85;;;;;;;4.81;76.01;100968.50;10130889;28;20058;-72
2020/12/09 14:37:11;;;;;;;82.20;38.65;;;;;;;4.71;76.83;100963.09;10123988;28;20145;-73
2020/12/09 14:42:23;;;;;;;81.93;39.70;;;;;;;4.59;77.34;100986.94;10121401;28;20062;-73
2020/12/09 14:47:20;;;;;;;73.50;37.50;;;;;;;4.72;76.87;100986.38;10126411;28;20078;-74
2020/12/09 14:52:16;;;;;;;74.05;38.53;;;;;;;4.80;75.95;100985.84;10139740;28;20046;-73
2020/12/09 14:57:13;;;;;;;79.90;40.20;;;;;;;4.76;75.75;100992.91;10127833;28;20042;-72
2020/12/09 15:02:11;;;;;;;81.95;39.70;;;;;;;4.64;76.23;100995.03;10137737;28;20537;-72
2020/12/09 15:07:07;;;;;;;77.80;38.13;;;;;;;4.54;77.03;100997.75;10122637;28;20050;-73
2020/12/09 15:12:04;;;;;;;68.55;36.00;;;;;;;4.64;76.51;101000.47;10127161;28;20190;-72
2020/12/09 15:17:00;;;;;;;76.97;38.65;;;;;;;4.55;77.67;101002.09;10126703;28;20102;-72
2020/12/09 15:22:00;;;;;;;82.60;39.20;;;;;;;4.48;77.93;100998.84;10135911;28;20049;-72
2020/12/09 15:26:56;;;;;;;76.00;37.25;;;;;;;4.56;77.63;100999.13;10133211;28;20058;-73
2020/12/09 15:31:52;;;;;;;80.40;37.85;;;;;;;4.41;77.95;101001.84;10141069;28;20050;-73
2020/12/09 15:36:52;;;;;;;78.57;37.80;;;;;;;4.41;77.96;100997.22;10123617;28;20074;-72
2020/12/09 15:41:48;;;;;;;82.10;40.33;;;;;;;4.33;78.37;101000.44;10136699;28;20062;-74
2020/12/09 15:46:45;;;;;;;86.85;37.92;;;;;;;4.28;79.03;101014.00;10129686;28;20062;-70
2020/12/09 15:51:41;;;;;;;89.90;39.45;;;;;;;4.29;78.86;100999.34;10125643;28;20090;-68
2020/12/09 15:56:39;;;;;;;98.10;41.67;;;;;;;4.29;78.81;100999.34;10114666;28;20047;-70
2020/12/09 16:01:35;;;;;;;78.82;36.80;;;;;;;4.28;79.51;101005.88;10120378;28;20074;-72
2020/12/09 16:06:31;;;;;;;91.63;40.25;;;;;;;4.21;78.97;101008.03;10113878;28;20063;-71
2020/12/09 16:11:28;;;;;;;88.13;37.83;;;;;;;4.20;80.08;101000.97;10123551;28;20066;-71
2020/12/09 16:16:24;;;;;;;85.35;36.53;;;;;;;4.20;80.04;101000.97;10121160;28;20498;-70
2020/12/09 16:21:20;;;;;;;84.72;38.67;;;;;;;4.27;79.71;100993.44;10119282;28;20081;-73
2020/12/09 16:26:17;;;;;;;91.70;40.10;;;;;;;4.21;80.14;101003.41;10125837;28;20121;-72
2020/12/09 16:31:13;;;;;;;86.38;38.97;;;;;;;4.26;80.45;100994.50;10116097;28;20478;-71
2020/12/09 16:36:09;;;;;;;90.72;37.97;;;;;;;4.21;80.93;101008.81;10126035;28;20054;-71
2020/12/09 16:41:05;;;;;;;92.65;40.28;;;;;;;4.36;80.21;101010.75;10121652;28;20085;-71
2020/12/09 16:46:01;;;;;;;105.60;41.90;;;;;;;4.09;80.47;101010.16;10107383;28;20053;-70
2020/12/09 16:50:57;;;;;;;87.10;38.88;;;;;;;4.24;80.71;100999.34;10135266;28;20046;-71
2020/12/09 16:55:53;;;;;;;89.90;39.03;;;;;;;4.31;80.97;101002.63;10111698;28;20058;-71
2020/12/09 17:00:49;;;;;;;99.22;41.25;;;;;;;4.29;80.72;101004.78;10129721;28;20054;-72
2020/12/09 17:05:45;;;;;;;99.57;43.28;;;;;;;4.37;80.89;101004.25;10093794;28;20525;-72
2020/12/09 17:10:41;;;;;;;94.68;39.78;;;;;;;4.40;81.12;101006.41;10119982;28;20435;-72
2020/12/09 17:15:37;;;;;;;100.72;41.25;;;;;;;4.31;80.81;101012.63;10121488;28;20054;-71
2020/12/09 17:20:34;;;;;;;112.60;40.17;;;;;;;4.11;81.32;101008.00;10118542;28;20058;-72
2020/12/09 17:25:30;;;;;;;101.13;41.30;;;;;;;4.29;81.60;101007.47;10118181;28;20054;-71
2020/12/09 17:30:28;;;;;;;102.35;41.78;;;;;;;4.25;81.70;101013.69;10124186;28;20055;-72
2020/12/09 17:35:24;;;;;;;103.40;39.85;;;;;;;4.24;81.31;101023.72;10121478;28;20059;-71
2020/12/09 17:40:20;;;;;;;97.07;40.55;;;;;;;4.20;82.37;101012.63;10118507;28;20560;-72
2020/12/09 17:45:16;;;;;;;93.70;38.83;;;;;;;4.26;81.56;101018.84;10128573;28;20050;-73
2020/12/09 17:50:13;;;;;;;105.18;39.22;;;;;;;4.30;81.12;101022.66;10133172;28;20084;-72
2020/12/09 17:55:09;;;;;;;92.65;37.58;;;;;;;4.31;80.95;101021.56;10101984;28;20055;-73
2020/12/09 18:00:05;;;;;;;87.88;36.42;;;;;;;4.25;80.89;101021.81;10115734;28;20059;-71
2020/12/09 18:05:03;;;;;;;93.07;41.97;;;;;;;4.17;81.03;101034.00;10129661;28;20078;-70
2020/12/09 18:10:00;;;;;;;94.68;38.47;;;;;;;4.18;81.47;101032.94;10122718;28;20889;-70
2020/12/09 18:14:56;;;;;;;89.78;37.50;;;;;;;4.10;81.67;101044.25;10118489;28;20146;-71
2020/12/09 18:19:55;;;;;;;82.05;34.75;;;;;;;4.13;81.45;101027.47;10126057;28;20073;-71
2020/12/09 18:24:51;;;;;;;79.85;36.38;;;;;;;4.19;81.82;101031.84;10114600;28;20066;-70
2020/12/09 18:29:47;;;;;;;80.72;35.35;;;;;;;4.28;80.94;101035.63;10123695;28;20526;-71
2020/12/09 18:34:43;;;;;;;74.07;33.45;;;;;;;4.28;80.64;101046.47;10128323;28;20533;-71
2020/12/09 18:39:39;;;;;;;74.60;34.17;;;;;;;4.22;80.58;101047.53;10132083;28;20043;-71
2020/12/09 18:44:35;;;;;;;74.07;31.60;;;;;;;4.29;80.71;101048.09;10131762;28;20058;-71
2020/12/09 18:49:31;;;;;;;71.10;30.05;;;;;;;4.32;80.22;101042.16;10123481;28;20459;-71
2020/12/09 18:54:27;;;;;;;70.65;30.20;;;;;;;4.38;80.29;101040.25;10132577;28;20098;-71
2020/12/09 18:59:23;;;;;;;73.80;34.72;;;;;;;4.42;79.85;101041.34;10137515;28;20054;-70
2020/12/09 19:04:19;;;;;;;79.13;34.38;;;;;;;4.42;79.23;101044.06;10124329;28;20054;-71
2020/12/09 19:09:15;;;;;;;76.80;32.60;;;;;;;4.40;78.66;101038.91;10111136;28;20066;-70
2020/12/09 19:14:11;;;;;;;78.88;33.97;;;;;;;4.41;79.41;101040.53;10115831;28;20054;-70
2020/12/09 19:19:07;;;;;;;67.22;32.70;;;;;;;4.43;79.51;101048.38;10115790;28;20053;-70
2020/12/09 19:24:03;;;;;;;77.38;33.70;;;;;;;4.42;79.09;101057.59;10123543;28;20136;-70
2020/12/09 19:29:00;;;;;;;81.95;34.47;;;;;;;4.40;79.52;101055.16;10118612;28;20062;-70
2020/12/09 19:33:57;;;;;;;73.75;31.77;;;;;;;4.31;79.01;101056.75;10120869;28;20055;-70
2020/12/09 19:38:53;;;;;;;77.50;34.05;;;;;;;4.32;79.17;101060.28;10136000;28;20109;-71
2020/12/09 19:43:51;;;;;;;71.65;30.90;;;;;;;4.36;79.38;101054.09;10123350;28;20075;-70
2020/12/09 19:48:47;;;;;;;67.38;30.70;;;;;;;4.38;78.72;101057.31;10129084;28;20124;-70
2020/12/09 19:53:44;;;;;;;76.43;32.00;;;;;;;4.32;79.21;101068.41;10131805;28;20078;-70
2020/12/09 19:58:40;;;;;;;78.47;33.90;;;;;;;4.38;78.96;101073.56;10128721;28;20051;-70
2020/12/09 20:03:37;;;;;;;65.25;28.75;;;;;;;4.36;78.55;101070.31;10127462;28;20774;-69
2020/12/09 20:08:33;;;;;;;62.88;28.42;;;;;;;4.34;79.27;101067.06;10115821;28;20065;-70
2020/12/09 20:13:29;;;;;;;64.85;30.33;;;;;;;4.37;78.77;101063.81;10128252;28;20125;-69
2020/12/09 20:18:26;;;;;;;66.78;29.55;;;;;;;4.39;78.42;101077.91;10115321;28;20049;-70
2020/12/09 20:23:27;;;;;;;66.65;27.88;;;;;;;4.36;78.50;101080.31;10123260;28;20082;-70
2020/12/09 20:28:25;;;;;;;80.90;31.73;;;;;;;4.36;78.52;101078.44;10127064;28;20046;-70
2020/12/09 20:33:21;;;;;;;72.88;29.75;;;;;;;4.32;79.64;101069.22;10123580;28;20117;-69
2020/12/09 20:38:17;;;;;;;83.70;31.65;;;;;;;4.27;80.09;101076.50;10119816;28;20054;-70
2020/12/09 20:43:13;;;;;;;89.88;34.72;;;;;;;4.28;80.11;101078.16;10129082;28;20050;-70
2020/12/09 20:48:09;;;;;;;86.32;34.22;;;;;;;4.33;79.62;101060.00;10120782;28;20058;-71
2020/12/09 20:53:05;;;;;;;91.43;33.92;;;;;;;4.30;79.63;101074.09;10129132;28;20169;-71
2020/12/09 20:58:01;;;;;;;84.65;33.40;;;;;;;4.28;79.91;101078.94;10127775;28;20159;-69
2020/12/09 21:02:57;;;;;;;93.45;35.35;;;;;;;4.28;80.07;101078.94;10119358;28;20062;-69
2020/12/09 21:07:57;;;;;;;89.40;34.00;;;;;;;4.31;80.41;101083.81;10119661;28;20164;-71
2020/12/09 21:12:54;;;;;;;89.32;34.67;;;;;;;4.33;80.00;101081.66;10121901;28;20109;-69
2020/12/09 21:17:50;;;;;;;92.72;37.55;;;;;;;4.27;80.16;101074.63;10108235;28;20121;-69
2020/12/09 21:22:46;;;;;;;84.15;34.05;;;;;;;4.26;80.11;101069.47;10120681;28;20050;-69
2020/12/09 21:27:42;;;;;;;94.40;37.50;;;;;;;4.28;80.47;101073.53;10120714;28;20038;-69
2020/12/09 21:32:38;;;;;;;90.53;35.55;;;;;;;4.37;80.93;101066.53;10120238;28;20058;-74
2020/12/09 21:37:38;;;;;;;100.38;38.50;;;;;;;4.40;80.38;101074.09;10135309;28;20430;-74
2020/12/09 21:42:35;;;;;;;94.65;37.15;;;;;;;4.33;80.64;101070.03;10133160;28;20050;-72
2020/12/09 21:47:31;;;;;;;98.20;37.53;;;;;;;4.27;81.18;101074.63;10128706;28;20062;-72
2020/12/09 21:52:27;;;;;;;98.68;37.88;;;;;;;4.32;80.85;101074.63;10100156;28;20061;-71
2020/12/09 21:57:23;;;;;;;88.10;33.53;;;;;;;4.21;81.74;101068.38;10132346;28;20061;-70
2020/12/09 22:02:19;;;;;;;98.38;37.65;;;;;;;4.25;81.73;101063.25;10137668;28;20636;-69
2020/12/09 22:07:16;;;;;;;84.70;36.60;;;;;;;4.23;81.36;101062.69;10139439;28;20054;-70
2020/12/09 22:12:12;;;;;;;89.35;35.92;;;;;;;4.15;81.32;101053.19;10137510;28;20402;-70
2020/12/09 22:17:08;;;;;;;85.13;35.05;;;;;;;4.19;81.17;101057.00;10126087;28;20702;-69
2020/12/09 22:22:04;;;;;;;85.25;34.78;;;;;;;4.20;81.08;101055.09;10118688;28;20050;-69
2020/12/09 22:27:00;;;;;;;85.90;33.97;;;;;;;4.20;81.87;101046.97;10117073;28;20745;-69
2020/12/09 22:31:56;;;;;;;85.10;32.13;;;;;;;4.21;81.00;101043.22;10125864;28;20084;-71
2020/12/09 22:36:53;;;;;;;74.70;33.20;;;;;;;4.26;80.86;101043.22;10132511;28;20084;-70
2020/12/09 22:41:51;;;;;;;82.80;34.40;;;;;;;4.20;81.08;101038.84;10131331;28;20062;-71